Time;durP1;ratioP1;P1;durP2;ratioP2;P2;SDS_P1;SDS_P2;PMS_P1;PMS_P2;Temp;Humidity;BMP_temperature;BMP_pressure;BME280_temperature;BME280_humidity;BME280_pressure;Samples;Min_cycle;Max_cycle;Signal;HPM_P1;HPM_P2
2024/01/13 00:02:25;;;;;;;6.30;5.23;;;;;;;-2.20;100.00;96596.66;7401919;19;20401;-93
2024/01/13 00:04:56;;;;;;;6.97;5.40;;;;;;;-1.10;100.00;96764.09;7403576;19;20852;-93
2024/01/13 00:07:24;;;;;;;4.70;4.30;;;;;;;-2.16;100.00;96600.41;7399677;19;20390;-93
2024/01/13 00:09:52;;;;;;;5.97;3.63;;;;;;;-1.50;100.00;96697.56;7400398;19;20372;-93
2024/01/13 00:12:19;;;;;;;6.43;4.07;;;;;;;-0.91;100.00;96794.81;7399727;19;20377;-94
2024/01/13 00:14:46;;;;;;;5.00;4.53;;;;;;;-1.62;100.00;96676.09;7400415;19;20885;-93
2024/01/13 00:17:14;;;;;;;4.43;3.20;;;;;;;-1.83;100.00;96642.03;7400280;19;20858;-93
2024/01/13 00:19:41;;;;;;;5.50;3.83;;;;;;;-1.25;100.00;96736.09;7400672;19;20440;-94
2024/01/13 00:22:09;;;;;;;4.27;3.40;;;;;;;-1.61;100.00;96675.09;7399011;19;20396;-92
2024/01/13 00:24:36;;;;;;;3.33;3.03;;;;;;;-3.03;100.00;96471.81;7399862;19;20381;-92
2024/01/13 00:27:04;;;;;;;7.23;5.30;;;;;;;-2.19;100.00;96611.88;7400387;19;20407;-93
2024/01/13 00:29:31;;;;;;;5.57;3.27;;;;;;;-1.48;100.00;96716.16;7399905;19;20921;-93
2024/01/13 00:31:59;;;;;;;5.80;4.00;;;;;;;-1.70;100.00;96677.16;7399688;19;20464;-93
2024/01/13 00:34:26;;;;;;;4.03;3.33;;;;;;;-0.96;100.00;96794.69;7399546;19;20402;-94
2024/01/13 00:36:54;;;;;;;3.60;3.10;;;;;;;-1.90;100.00;96663.69;7398183;19;20467;-93
2024/01/13 00:39:21;;;;;;;5.20;3.63;;;;;;;-1.35;100.00;96735.81;7399495;19;20695;-93
2024/01/13 00:41:49;;;;;;;2.63;2.43;;;;;;;-1.64;100.00;96673.75;7399294;19;20408;-93
2024/01/13 00:44:18;;;;;;;4.90;3.40;;;;;;;-2.08;100.00;96613.75;7403382;19;20393;-91
2024/01/13 00:46:45;;;;;;;5.50;4.43;;;;;;;-1.48;100.00;96691.22;7411588;19;20886;-91
2024/01/13 00:49:12;;;;;;;4.53;3.07;;;;;;;-1.98;100.00;96608.16;7403938;19;20380;-93
2024/01/13 00:51:42;;;;;;;4.00;3.33;;;;;;;-1.67;100.00;96663.84;7399158;19;20387;-93
2024/01/13 00:54:10;;;;;;;7.70;4.93;;;;;;;-2.09;100.00;96596.78;7400001;19;20385;-93
2024/01/13 00:56:51;;;;;;;5.07;4.10;;;;;;;-1.75;100.00;96646.13;7394648;19;20402;-92
2024/01/13 00:59:22;;;;;;;3.83;2.83;;;;;;;-2.24;100.00;96587.81;7400351;19;20408;-94
2024/01/13 01:01:52;;;;;;;5.27;3.73;;;;;;;-2.02;100.00;96625.00;7399989;19;20372;-92
2024/01/13 01:04:28;;;;;;;7.93;4.60;;;;;;;-1.54;100.00;96688.69;7401459;19;20392;-94
2024/01/13 01:06:56;;;;;;;5.20;4.00;;;;;;;-1.44;100.00;96706.22;7397378;19;20416;-93
2024/01/13 01:09:23;;;;;;;5.50;3.67;;;;;;;-2.30;100.00;96561.19;7399187;19;20357;-94
2024/01/13 01:11:51;;;;;;;7.17;4.20;;;;;;;-1.30;100.00;96708.44;7399468;19;20369;-92
2024/01/13 01:14:19;;;;;;;7.07;3.67;;;;;;;-1.92;100.00;96601.38;7399675;19;20384;-94
2024/01/13 01:16:46;;;;;;;6.20;3.80;;;;;;;-2.08;100.00;96584.69;7397335;19;20448;-94
2024/01/13 01:19:13;;;;;;;4.57;4.10;;;;;;;-1.01;100.00;96743.00;7398738;19;20368;-93
2024/01/13 01:21:43;;;;;;;5.13;3.90;;;;;;;-1.71;100.00;96644.72;7399157;19;20412;-93
2024/01/13 01:24:10;;;;;;;7.50;4.63;;;;;;;-1.12;100.00;96728.25;7398482;19;20381;-94
2024/01/13 01:26:38;;;;;;;4.40;4.00;;;;;;;-2.16;100.00;96560.06;7398827;19;20408;-94
2024/01/13 01:29:06;;;;;;;4.60;3.73;;;;;;;-1.32;100.00;96683.91;7399002;19;20380;-92
2024/01/13 01:31:34;;;;;;;4.33;3.93;;;;;;;-1.59;100.00;96631.94;7398452;19;20368;-93
2024/01/13 01:34:01;;;;;;;9.20;3.93;;;;;;;-1.83;100.00;96605.25;7396948;19;20385;-93
2024/01/13 01:36:29;;;;;;;3.73;3.17;;;;;;;-1.36;100.00;96685.34;7397405;19;20684;-94
2024/01/13 01:38:56;;;;;;;5.67;3.90;;;;;;;-1.87;100.00;96583.53;7399357;19;20369;-93
2024/01/13 01:41:25;;;;;;;6.60;4.70;;;;;;;-2.19;100.00;96542.47;7397957;19;20380;-92
2024/01/13 01:43:53;;;;;;;5.40;4.00;;;;;;;-1.30;100.00;96666.44;7397205;19;20420;-94
2024/01/13 01:46:23;;;;;;;4.93;4.10;;;;;;;-2.38;100.00;96497.19;7399142;19;20472;-92
2024/01/13 01:48:59;;;;;;;5.90;5.33;;;;;;;-2.87;100.00;96426.88;7400581;19;20372;-94
2024/01/13 01:51:30;;;;;;;5.17;3.43;;;;;;;-1.31;100.00;96667.47;7398159;19;20387;-93
2024/01/13 01:53:59;;;;;;;5.60;4.33;;;;;;;-2.61;100.00;96453.31;7396048;19;20378;-93
2024/01/13 01:56:36;;;;;;;5.20;3.40;;;;;;;-2.44;100.00;96482.63;7397154;19;20682;-95
2024/01/13 01:59:07;;;;;;;6.90;5.10;;;;;;;-1.64;100.00;96601.72;7398840;19;20869;-93
2024/01/13 02:01:38;;;;;;;5.27;3.83;;;;;;;-1.68;100.00;96589.47;7399079;19;20361;-94
2024/01/13 02:04:08;;;;;;;3.67;3.13;;;;;;;-3.09;100.00;96374.34;7398450;19;20377;-94
2024/01/13 02:06:36;;;;;;;4.83;3.80;;;;;;;-2.03;100.00;96537.81;7396536;19;20389;-94
2024/01/13 02:09:06;;;;;;;3.40;3.10;;;;;;;-1.70;100.00;96589.69;7405345;19;20369;-95
2024/01/13 02:11:33;;;;;;;5.00;3.80;;;;;;;-2.71;100.00;96423.78;7406113;19;20365;-92
2024/01/13 02:14:01;;;;;;;5.63;4.20;;;;;;;-1.54;100.00;96607.13;7411064;19;20483;-92
2024/01/13 02:16:29;;;;;;;5.47;3.50;;;;;;;-2.22;100.00;96506.13;7403024;19;20387;-93
2024/01/13 02:18:57;;;;;;;3.67;3.00;;;;;;;-1.81;100.00;96577.53;7405293;19;20722;-92
2024/01/13 02:21:24;;;;;;;3.10;2.57;;;;;;;-1.85;100.00;96574.59;7405035;19;20384;-93
2024/01/13 02:23:52;;;;;;;4.50;3.43;;;;;;;-1.73;100.00;96589.34;7402417;19;20456;-94
2024/01/13 02:26:19;;;;;;;3.73;2.60;;;;;;;-1.71;100.00;96582.19;7404458;19;20707;-94
2024/01/13 02:28:47;;;;;;;4.17;3.70;;;;;;;-1.64;100.00;96588.03;7404773;19;20387;-93
2024/01/13 02:31:16;;;;;;;3.73;2.73;;;;;;;-1.46;100.00;96618.94;7404385;19;20737;-93
2024/01/13 02:33:50;;;;;;;3.83;2.40;;;;;;;-2.25;100.00;96491.13;7401445;19;20472;-92
2024/01/13 02:36:21;;;;;;;3.10;2.53;;;;;;;-1.43;100.00;96628.78;7403274;19;20403;-92
2024/01/13 02:38:49;;;;;;;4.60;3.30;;;;;;;-1.95;100.00;96553.72;7403907;19;20480;-92
2024/01/13 02:41:17;;;;;;;3.53;3.20;;;;;;;-1.69;100.00;96586.13;7403616;19;20375;-93
2024/01/13 02:43:44;;;;;;;4.40;3.40;;;;;;;-1.77;100.00;96560.69;7401819;19;20415;-93
2024/01/13 02:46:12;;;;;;;3.50;3.17;;;;;;;-1.97;100.00;96524.88;7403137;19;20384;-93
2024/01/13 02:48:43;;;;;;;2.43;2.23;;;;;;;-1.10;100.00;96651.59;7403451;19;20377;-93
2024/01/13 02:51:14;;;;;;;5.57;3.90;;;;;;;-1.66;100.00;96569.47;7403689;19;20385;-93
2024/01/13 02:53:43;;;;;;;4.70;4.23;;;;;;;-1.74;100.00;96555.09;7407899;19;20400;-92
2024/01/13 02:56:11;;;;;;;3.53;3.23;;;;;;;-0.87;100.00;96684.38;7402268;19;20472;-92
2024/01/13 02:58:39;;;;;;;5.40;4.40;;;;;;;-1.94;100.00;96509.00;7403395;19;20373;-93
2024/01/13 03:01:13;;;;;;;4.27;3.80;;;;;;;-1.33;100.00;96603.31;7405308;19;20420;-93
2024/01/13 03:03:49;;;;;;;5.50;4.40;;;;;;;-1.75;100.00;96538.09;7401683;19;20408;-92
2024/01/13 03:06:22;;;;;;;4.60;3.20;;;;;;;-1.09;100.00;96631.78;7403320;19;20412;-93
2024/01/13 03:08:55;;;;;;;6.80;4.17;;;;;;;-1.36;100.00;96587.53;7403489;19;20397;-92
2024/01/13 03:11:23;;;;;;;6.33;4.37;;;;;;;-2.28;100.00;96450.47;7402922;19;20365;-93
2024/01/13 03:13:54;;;;;;;4.93;4.47;;;;;;;-3.12;100.00;96319.06;7401999;19;20395;-92
2024/01/13 03:16:21;;;;;;;5.63;5.10;;;;;;;-1.46;100.00;96570.03;7403289;19;20401;-92
2024/01/13 03:18:49;;;;;;;4.90;4.40;;;;;;;-1.19;100.00;96604.75;7402849;19;20372;-92
2024/01/13 03:21:17;;;;;;;5.70;4.73;;;;;;;-1.83;100.00;96481.78;7407698;19;20364;-93
2024/01/13 03:23:45;;;;;;;7.07;4.00;;;;;;;-0.85;100.00;96639.38;7422293;19;20436;-92
2024/01/13 03:26:13;;;;;;;4.87;4.00;;;;;;;-1.00;100.00;96600.34;7424731;19;20373;-93
2024/01/13 03:28:42;;;;;;;5.27;3.90;;;;;;;-1.61;100.00;96516.38;7424173;19;20402;-92
2024/01/13 03:31:13;;;;;;;5.83;5.23;;;;;;;-1.94;100.00;96452.44;7428440;19;20405;-91
2024/01/13 03:33:45;;;;;;;6.20;4.63;;;;;;;-2.31;100.00;96387.44;7429201;19;20420;-91
2024/01/13 03:36:15;;;;;;;5.73;5.00;;;;;;;-1.97;100.00;96441.81;7431279;19;20421;-90
2024/01/13 03:38:42;;;;;;;5.47;4.37;;;;;;;-1.79;100.00;96470.06;7431959;19;20402;-93
2024/01/13 03:41:17;;;;;;;6.50;5.80;;;;;;;-2.32;100.00;96374.78;7431466;19;20381;-91
2024/01/13 03:43:44;;;;;;;6.80;5.50;;;;;;;-1.40;100.00;96517.69;7429732;19;20428;-91
2024/01/13 03:46:13;;;;;;;7.43;5.27;;;;;;;-1.36;100.00;96511.09;7431457;19;20395;-90
2024/01/13 03:48:42;;;;;;;6.10;5.03;;;;;;;-1.24;100.00;96554.91;7431685;19;20385;-90
2024/01/13 03:51:10;;;;;;;7.23;5.93;;;;;;;-1.78;100.00;96454.44;7429425;19;20507;-91
2024/01/13 03:53:38;;;;;;;5.30;4.80;;;;;;;-1.62;100.00;96489.06;7405277;19;20423;-93
2024/01/13 03:56:08;;;;;;;8.27;6.23;;;;;;;-1.64;100.00;96505.72;7406659;19;20368;-93
2024/01/13 03:58:38;;;;;;;5.70;4.60;;;;;;;-1.66;100.00;96503.34;7406365;19;20383;-94
2024/01/13 04:01:11;;;;;;;8.27;5.27;;;;;;;-1.64;100.00;96500.56;7403346;19;20369;-92
2024/01/13 04:03:44;;;;;;;7.33;5.33;;;;;;;-2.22;100.00;96421.31;7401694;19;20424;-94
2024/01/13 04:06:14;;;;;;;7.17;6.47;;;;;;;-2.22;100.00;96422.09;7401790;19;20690;-92
2024/01/13 04:08:52;;;;;;;10.67;7.10;;;;;;;-2.19;100.00;96428.59;7403445;19;20418;-93
2024/01/13 04:11:25;;;;;;;8.63;6.20;;;;;;;-1.87;100.00;96468.59;7402716;19;20376;-93
2024/01/13 04:13:53;;;;;;;10.60;7.13;;;;;;;-1.96;100.00;96457.00;7400166;19;20425;-93
2024/01/13 04:16:20;;;;;;;12.07;8.03;;;;;;;-1.74;100.00;96492.59;7400683;19;20373;-93
2024/01/13 04:18:56;;;;;;;10.63;7.37;;;;;;;-1.56;100.00;96519.06;7401917;19;20396;-93
2024/01/13 04:21:24;;;;;;;10.73;7.00;;;;;;;-1.74;100.00;96479.72;7400809;19;20425;-93
2024/01/13 04:23:52;;;;;;;9.77;7.13;;;;;;;-2.73;100.00;96327.38;7398425;19;20397;-92
2024/01/13 04:26:21;;;;;;;12.50;7.73;;;;;;;-1.76;100.00;96467.88;7400618;19;20766;-92
2024/01/13 04:28:49;;;;;;;10.97;8.07;;;;;;;-1.53;100.00;96513.50;7400495;19;20395;-93
2024/01/13 04:31:16;;;;;;;10.63;8.10;;;;;;;-1.66;100.00;96492.28;7400192;19;20452;-92
2024/01/13 04:33:44;;;;;;;13.00;9.57;;;;;;;-2.38;100.00;96379.00;7398727;19;20389;-92
2024/01/13 04:36:12;;;;;;;7.87;6.50;;;;;;;-1.98;100.00;96450.53;7400095;19;20373;-93
2024/01/13 04:38:40;;;;;;;11.33;6.80;;;;;;;-2.59;100.00;96369.91;7400805;19;20464;-93
2024/01/13 04:41:07;;;;;;;12.23;8.50;;;;;;;-1.55;100.00;96494.13;7401867;19;20384;-92
2024/01/13 04:43:37;;;;;;;15.70;10.90;;;;;;;-2.38;100.00;96379.00;7409109;19;20408;-91
2024/01/13 04:46:06;;;;;;;14.97;11.23;;;;;;;-2.68;100.00;96322.41;7405436;19;20385;-93
2024/01/13 04:48:34;;;;;;;14.23;9.83;;;;;;;-0.87;100.00;96600.16;7400370;19;20382;-94
2024/01/13 04:51:02;;;;;;;11.40;7.37;;;;;;;-2.00;100.00;96406.25;7399860;19;20381;-93
2024/01/13 04:53:29;;;;;;;15.37;9.03;;;;;;;-1.18;100.00;96531.66;7398985;19;20421;-92
2024/01/13 04:55:57;;;;;;;15.73;9.17;;;;;;;-1.65;100.00;96461.19;7400252;19;20775;-93
2024/01/13 04:58:24;;;;;;;12.90;9.17;;;;;;;-2.01;100.00;96408.03;7398265;19;20377;-93
2024/01/13 05:00:52;;;;;;;11.97;7.80;;;;;;;-2.10;100.00;96386.97;7400853;19;20372;-95
2024/01/13 05:03:23;;;;;;;14.90;8.87;;;;;;;-2.66;100.00;96287.81;7397789;19;20420;-92
2024/01/13 05:05:56;;;;;;;14.80;8.67;;;;;;;-2.02;100.00;96391.03;7399255;19;20897;-92
2024/01/13 05:08:28;;;;;;;12.93;8.47;;;;;;;-0.86;100.00;96575.97;7408305;19;20861;-94
2024/01/13 05:10:59;;;;;;;10.80;8.50;;;;;;;-2.10;100.00;96376.69;7400051;19;20392;-93
2024/01/13 05:13:27;;;;;;;9.50;7.40;;;;;;;-2.06;100.00;96369.31;7398354;19;20996;-94
2024/01/13 05:15:54;;;;;;;10.50;7.27;;;;;;;-2.01;100.00;96389.25;7398380;19;20851;-93
2024/01/13 05:18:21;;;;;;;11.47;7.07;;;;;;;-2.77;100.00;96264.63;7398750;19;20482;-92
2024/01/13 05:20:49;;;;;;;17.03;9.23;;;;;;;-1.87;100.00;96417.16;7398750;19;20404;-93
2024/01/13 05:23:17;;;;;;;10.03;8.63;;;;;;;-1.98;100.00;96381.88;7398457;19;20393;-93
2024/01/13 05:25:44;;;;;;;11.73;8.03;;;;;;;-2.05;100.00;96363.16;7399012;19;20429;-92
2024/01/13 05:28:12;;;;;;;10.70;7.30;;;;;;;-1.94;100.00;96375.28;7398302;19;20380;-92
2024/01/13 05:30:39;;;;;;;13.97;7.60;;;;;;;-2.39;100.00;96313.97;7398727;19;20388;-93
2024/01/13 05:33:09;;;;;;;9.57;7.47;;;;;;;-1.76;100.00;96408.72;7397745;19;20424;-93
2024/01/13 05:35:37;;;;;;;9.10;6.70;;;;;;;-1.94;100.00;96370.16;7398469;19;20377;-92
2024/01/13 05:38:05;;;;;;;10.77;6.93;;;;;;;-1.57;100.00;96418.94;7397282;19;20361;-93
2024/01/13 05:40:32;;;;;;;13.20;7.57;;;;;;;-0.76;100.00;96536.81;7398632;19;20888;-92
2024/01/13 05:43:00;;;;;;;8.90;6.73;;;;;;;-1.62;100.00;96414.47;7395598;19;20431;-93
2024/01/13 05:45:27;;;;;;;8.37;6.63;;;;;;;-1.90;100.00;96350.75;7398857;19;20373;-92
2024/01/13 05:47:55;;;;;;;12.37;7.67;;;;;;;-1.59;100.00;96392.66;7399390;19;20376;-92
2024/01/13 05:50:23;;;;;;;9.67;8.10;;;;;;;-1.25;100.00;96453.69;7397824;19;20662;-94
2024/01/13 05:52:50;;;;;;;9.07;7.07;;;;;;;-1.39;100.00;96424.00;7399033;19;20389;-92
2024/01/13 05:55:17;;;;;;;12.23;6.97;;;;;;;-1.86;100.00;96376.78;7398327;19;20368;-93
2024/01/13 05:57:45;;;;;;;11.90;8.30;;;;;;;-2.37;100.00;96300.91;7396536;19;20464;-94
2024/01/13 06:00:13;;;;;;;12.60;5.17;;;;;;;-1.50;100.00;96438.47;7398889;19;20448;-94
2024/01/13 06:02:43;;;;;;;31.43;23.67;;;;;;;-1.88;100.00;96384.72;7397050;19;20421;-92
2024/01/13 06:05:11;;;;;;;12.27;10.00;;;;;;;-1.17;100.00;96481.72;7399321;19;20376;-93
2024/01/13 06:07:47;;;;;;;12.07;7.53;;;;;;;-2.04;100.00;96346.78;7396893;19;20392;-93
2024/01/13 06:10:20;;;;;;;13.20;10.23;;;;;;;-2.06;100.00;96346.97;7398256;19;20413;-93
2024/01/13 06:12:47;;;;;;;13.40;9.30;;;;;;;-1.24;100.00;96464.81;7396762;19;20885;-93
2024/01/13 06:15:15;;;;;;;9.73;7.53;;;;;;;-1.73;100.00;96409.28;7397246;19;20402;-93
2024/01/13 06:17:42;;;;;;;11.97;9.00;;;;;;;-1.23;100.00;96479.25;7396497;19;20436;-92
2024/01/13 06:20:10;;;;;;;11.73;8.27;;;;;;;-2.35;100.00;96315.09;7398148;19;20405;-93
2024/01/13 06:22:38;;;;;;;10.30;6.90;;;;;;;-2.46;100.00;96304.75;7403461;19;20418;-93
2024/01/13 06:25:06;;;;;;;16.70;10.57;;;;;;;-2.00;100.00;96367.69;7402317;19;20392;-94
2024/01/13 06:27:33;;;;;;;16.03;12.70;;;;;;;-2.88;100.00;96222.47;7408140;19;20917;-90
2024/01/13 06:30:01;;;;;;;14.80;10.17;;;;;;;-2.14;100.00;96329.28;7410285;19;20388;-94
2024/01/13 06:32:29;;;;;;;27.80;17.30;;;;;;;-1.77;100.00;96385.78;7398513;19;20488;-93
2024/01/13 06:34:57;;;;;;;35.27;18.83;;;;;;;-1.79;100.00;96370.53;7403583;19;20377;-93
2024/01/13 06:37:27;;;;;;;31.63;20.57;;;;;;;-1.65;100.00;96380.66;7399460;19;20380;-93
2024/01/13 06:39:54;;;;;;;18.17;10.63;;;;;;;-1.25;100.00;96453.69;7400626;19;20361;-94
2024/01/13 06:42:24;;;;;;;31.80;19.70;;;;;;;-1.25;100.00;96458.84;7399516;19;20487;-93
2024/01/13 06:44:53;;;;;;;25.50;14.00;;;;;;;-2.21;100.00;96295.16;7400569;19;20377;-93
2024/01/13 06:47:23;;;;;;;31.07;15.67;;;;;;;-2.72;100.00;96227.03;7397454;19;20893;-93
2024/01/13 06:49:51;;;;;;;39.53;28.67;;;;;;;-2.00;100.00;96309.34;7395944;19;20397;-93
2024/01/13 06:52:20;;;;;;;16.07;10.50;;;;;;;-1.82;100.00;96340.13;7395640;19;20464;-93
2024/01/13 06:54:48;;;;;;;15.93;14.30;;;;;;;-1.85;100.00;96338.00;7401718;19;20389;-92
2024/01/13 06:57:16;;;;;;;9.97;6.87;;;;;;;-1.41;100.00;96377.16;7403666;19;20401;-92
2024/01/13 06:59:44;;;;;;;13.80;12.43;;;;;;;-1.82;100.00;96311.06;7403487;19;20734;-92
2024/01/13 07:02:12;;;;;;;11.20;7.90;;;;;;;-1.47;100.00;96349.72;7402512;19;20373;-93
2024/01/13 07:04:41;;;;;;;6.43;5.27;;;;;;;-1.73;100.00;96321.81;7403642;19;20369;-92
2024/01/13 07:07:10;;;;;;;7.50;6.23;;;;;;;-0.68;100.00;96461.78;7401184;19;20496;-93
2024/01/13 07:09:42;;;;;;;8.10;6.73;;;;;;;-1.81;100.00;96302.34;7404356;19;20369;-93
2024/01/13 07:12:14;;;;;;;16.77;10.30;;;;;;;-1.79;100.00;96303.66;7403092;19;20401;-93
2024/01/13 07:14:42;;;;;;;8.10;5.53;;;;;;;-2.31;100.00;96217.03;7403221;19;20381;-93
2024/01/13 07:17:09;;;;;;;9.13;6.83;;;;;;;-1.23;100.00;96377.06;7402969;19;20700;-93
2024/01/13 07:19:39;;;;;;;6.93;5.33;;;;;;;-1.81;100.00;96299.75;7404042;19;20415;-92
2024/01/13 07:22:07;;;;;;;8.23;6.20;;;;;;;-1.78;100.00;96292.41;7403119;19;20428;-93
2024/01/13 07:24:35;;;;;;;13.00;6.87;;;;;;;-0.98;100.00;96396.66;7403953;19;20373;-92
2024/01/13 07:27:03;;;;;;;12.87;7.80;;;;;;;-0.63;100.00;96467.03;7403324;19;20389;-92
2024/01/13 07:29:31;;;;;;;7.77;6.57;;;;;;;-1.90;100.00;96277.97;7403017;19;20373;-93
2024/01/13 07:31:58;;;;;;;25.33;15.50;;;;;;;-0.92;100.00;96418.97;7403176;19;20385;-92
2024/01/13 07:34:26;;;;;;;102.87;51.03;;;;;;;-1.40;100.00;96359.91;7402900;19;20388;-91
2024/01/13 07:36:53;;;;;;;9.60;7.77;;;;;;;-1.30;100.00;96378.94;7403059;19;20409;-92
2024/01/13 07:39:21;;;;;;;356.67;179.73;;;;;;;-2.13;100.00;96229.81;7401538;19;20440;-93
2024/01/13 07:41:51;;;;;;;78.20;41.37;;;;;;;-1.27;100.00;96360.47;7402753;19;20373;-91
2024/01/13 07:44:18;;;;;;;425.07;228.13;;;;;;;-1.34;100.00;96353.88;7402417;19;20701;-94
2024/01/13 07:46:46;;;;;;;34.47;19.23;;;;;;;-1.02;100.00;96395.53;7402511;19;20388;-93
2024/01/13 07:49:15;;;;;;;24.40;14.87;;;;;;;-1.91;100.00;96268.66;7402274;19;20385;-92
2024/01/13 07:51:48;;;;;;;11.37;7.80;;;;;;;-1.71;100.00;96289.72;7401835;19;20373;-94
2024/01/13 07:54:16;;;;;;;6.40;4.60;;;;;;;-0.99;100.00;96407.97;7402561;19;20392;-92
2024/01/13 07:56:43;;;;;;;6.50;5.10;;;;;;;-1.39;100.00;96358.88;7402333;19;20376;-92
2024/01/13 07:59:11;;;;;;;7.93;6.00;;;;;;;-1.76;100.00;96292.19;7400549;19;20598;-92
2024/01/13 08:01:39;;;;;;;6.23;5.20;;;;;;;-1.34;100.00;96371.88;7401728;19;20876;-92
2024/01/13 08:04:07;;;;;;;7.77;5.70;;;;;;;-1.56;100.00;96308.09;7399733;19;20421;-91
2024/01/13 08:06:36;;;;;;;8.07;7.27;;;;;;;-0.52;100.00;96460.31;7399032;19;20389;-94
2024/01/13 08:09:04;;;;;;;77.00;40.90;;;;;;;-1.33;100.00;96325.34;7401747;19;20402;-94
2024/01/13 08:11:32;;;;;;;13.37;10.30;;;;;;;-0.33;100.00;96487.56;7402182;19;20682;-93
2024/01/13 08:14:11;;;;;;;19.90;12.50;;;;;;;-1.73;100.00;96278.09;7402597;19;20395;-93
2024/01/13 08:16:42;;;;;;;10.30;7.07;;;;;;;-1.58;100.00;96322.19;7402499;19;20371;-92
2024/01/13 08:19:12;;;;;;;8.37;5.77;;;;;;;-1.29;100.00;96366.84;7417628;19;20405;-92
2024/01/13 08:21:41;;;;;;;9.63;6.13;;;;;;;-1.59;100.00;96290.53;7424791;19;20392;-91
2024/01/13 08:24:09;;;;;;;10.33;6.10;;;;;;;-1.31;100.00;96345.69;7401611;19;20388;-93
2024/01/13 08:26:39;;;;;;;7.97;6.00;;;;;;;-1.66;100.00;96282.13;7400768;19;20384;-95
2024/01/13 08:29:08;;;;;;;11.97;6.50;;;;;;;-1.26;100.00;96340.66;7400498;19;20901;-92
2024/01/13 08:31:36;;;;;;;20.33;14.03;;;;;;;-1.38;100.00;96316.69;7399962;19;20393;-91
2024/01/13 08:34:10;;;;;;;9.17;6.03;;;;;;;-0.85;100.00;96394.66;7397923;19;20436;-92
2024/01/13 08:36:41;;;;;;;6.50;5.90;;;;;;;-1.11;100.00;96361.59;7399911;19;20874;-93
2024/01/13 08:39:11;;;;;;;8.70;6.97;;;;;;;-1.83;100.00;96251.13;7398991;19;20369;-93
2024/01/13 08:41:52;;;;;;;7.90;5.97;;;;;;;-1.27;100.00;96329.56;7399550;19;20384;-93
2024/01/13 08:44:19;;;;;;;6.77;5.93;;;;;;;-1.60;100.00;96299.25;7400130;19;20874;-91
2024/01/13 08:46:47;;;;;;;13.30;9.90;;;;;;;-1.67;100.00;96280.56;7400387;19;20385;-93
2024/01/13 08:49:15;;;;;;;13.90;8.87;;;;;;;-1.33;100.00;96335.63;7399472;19;20428;-91
2024/01/13 08:51:42;;;;;;;40.37;18.40;;;;;;;-1.29;100.00;96328.25;7400019;19;20476;-92
2024/01/13 08:54:10;;;;;;;9.67;6.53;;;;;;;-1.96;100.00;96264.16;7399898;19;20436;-92
2024/01/13 08:56:37;;;;;;;9.60;6.40;;;;;;;-1.58;100.00;96304.97;7399582;19;20413;-92
2024/01/13 08:59:08;;;;;;;18.20;11.00;;;;;;;-1.12;100.00;96356.69;7398267;19;20369;-92
2024/01/13 09:01:37;;;;;;;28.80;17.80;;;;;;;-0.38;100.00;96448.78;7401029;19;20381;-93
2024/01/13 09:04:08;;;;;;;20.57;17.30;;;;;;;-0.99;100.00;96349.50;7397367;19;20412;-93
2024/01/13 09:06:40;;;;;;;7.30;6.43;;;;;;;-0.44;100.00;96454.84;7398298;19;20408;-93
2024/01/13 09:09:24;;;;;;;13.27;9.20;;;;;;;-1.31;100.00;96323.31;7399695;19;20671;-92
2024/01/13 09:11:57;;;;;;;10.80;6.33;;;;;;;-1.26;100.00;96349.16;7399867;19;20413;-92
2024/01/13 09:14:26;;;;;;;11.60;6.87;;;;;;;-1.23;100.00;96333.28;7401829;19;20369;-93
2024/01/13 09:16:56;;;;;;;8.30;6.80;;;;;;;-0.43;100.00;96463.38;7397126;19;20387;-92
2024/01/13 09:19:23;;;;;;;8.53;7.70;;;;;;;-0.97;100.00;96380.22;7398513;19;20384;-93
2024/01/13 09:21:51;;;;;;;11.70;9.30;;;;;;;-1.16;100.00;96328.81;7399160;19;20387;-94
2024/01/13 09:24:19;;;;;;;9.43;7.53;;;;;;;-1.05;100.00;96357.38;7399332;19;20367;-92
2024/01/13 09:26:47;;;;;;;9.90;6.30;;;;;;;-1.21;100.00;96335.66;7398631;19;20399;-93
2024/01/13 09:29:17;;;;;;;6.70;5.60;;;;;;;-0.93;100.00;96389.84;7399385;19;20867;-93
2024/01/13 09:31:53;;;;;;;7.47;5.87;;;;;;;-1.79;100.00;96246.31;7398960;19;20890;-83
2024/01/13 09:34:21;;;;;;;30.40;24.57;;;;;;;-1.55;100.00;96281.34;7398210;19;20387;-92
2024/01/13 09:36:49;;;;;;;16.70;9.13;;;;;;;-1.25;100.00;96334.50;7399153;19;20428;-92
2024/01/13 09:39:20;;;;;;;8.10;6.03;;;;;;;-0.34;100.00;96444.72;7397859;19;20448;-93
2024/01/13 09:41:53;;;;;;;10.70;6.77;;;;;;;-1.16;100.00;96312.56;7398803;19;20404;-92
2024/01/13 09:44:29;;;;;;;8.03;6.47;;;;;;;-1.62;100.00;96236.19;7400592;19;20681;-92
2024/01/13 09:46:59;;;;;;;6.63;5.93;;;;;;;-1.75;100.00;96239.75;7398282;19;20368;-92
2024/01/13 09:49:29;;;;;;;7.37;5.93;;;;;;;-1.67;100.00;96246.31;7398856;19;20396;-94
2024/01/13 09:52:05;;;;;;;4.43;3.43;;;;;;;-1.21;100.00;96312.47;7398633;19;20381;-94
2024/01/13 09:54:35;;;;;;;6.87;5.20;;;;;;;-1.46;100.00;96282.59;7400399;19;20375;-92
2024/01/13 09:57:04;;;;;;;7.60;5.80;;;;;;;-0.79;100.00;96374.16;7398972;19;20373;-93
2024/01/13 09:59:32;;;;;;;6.83;5.30;;;;;;;-1.33;100.00;96288.50;7396225;19;20480;-93
2024/01/13 10:02:01;;;;;;;12.20;7.00;;;;;;;-0.53;100.00;96388.38;7398792;19;20369;-92
2024/01/13 10:04:30;;;;;;;56.03;26.77;;;;;;;-1.46;100.00;96244.00;7398678;19;20369;-93
2024/01/13 10:06:58;;;;;;;10.20;6.90;;;;;;;-0.52;100.00;96372.69;7395937;19;20389;-92
2024/01/13 10:09:28;;;;;;;22.50;14.80;;;;;;;-1.12;100.00;96298.25;7398060;19;20420;-92
2024/01/13 10:12:06;;;;;;;9.00;5.20;;;;;;;-2.01;100.00;96168.94;7398042;19;20398;-94
2024/01/13 10:14:42;;;;;;;11.47;8.80;;;;;;;-1.23;100.00;96281.81;7398467;19;20375;-92
2024/01/13 10:17:18;;;;;;;8.50;6.57;;;;;;;-0.85;100.00;96319.94;7398649;19;20397;-93
2024/01/13 10:19:49;;;;;;;6.30;5.13;;;;;;;-0.82;100.00;96312.81;7396047;19;20389;-93
2024/01/13 10:22:18;;;;;;;6.60;5.50;;;;;;;-0.68;100.00;96340.69;7396972;19;20717;-94
2024/01/13 10:24:49;;;;;;;8.90;6.90;;;;;;;-1.91;100.00;96155.50;7397672;19;20377;-92
2024/01/13 10:27:16;;;;;;;6.70;5.83;;;;;;;-2.05;100.00;96124.09;7397261;19;20384;-92
2024/01/13 10:29:44;;;;;;;6.10;4.07;;;;;;;-1.60;100.00;96190.44;7403059;19;20381;-93
2024/01/13 10:32:12;;;;;;;5.63;4.60;;;;;;;-1.20;100.00;96255.63;7403688;19;20409;-92
2024/01/13 10:34:49;;;;;;;8.60;6.80;;;;;;;-1.90;100.00;96146.81;7403845;19;20460;-93
2024/01/13 10:37:17;;;;;;;9.50;8.17;;;;;;;-1.61;100.00;96191.44;7404354;19;20378;-93
2024/01/13 10:39:45;;;;;;;10.37;7.07;;;;;;;-1.00;100.00;96287.94;7402322;19;20401;-92
2024/01/13 10:42:16;;;;;;;8.70;7.80;;;;;;;-1.57;100.00;96189.97;7403087;19;20398;-93
2024/01/13 10:44:55;;;;;;;10.97;6.87;;;;;;;-2.00;100.00;96144.00;7405124;19;20405;-93
2024/01/13 10:47:30;;;;;;;7.00;5.53;;;;;;;-0.81;100.00;96324.66;7403961;19;20369;-93
2024/01/13 10:49:59;;;;;;;10.03;7.77;;;;;;;-1.19;100.00;96252.03;7403987;19;20380;-93
2024/01/13 10:52:38;;;;;;;10.27;9.17;;;;;;;-0.38;100.00;96365.50;7403512;19;20421;-92
2024/01/13 10:55:06;;;;;;;7.47;6.70;;;;;;;-0.36;100.00;96340.28;7403653;19;20368;-93
2024/01/13 10:57:34;;;;;;;17.53;12.13;;;;;;;-1.04;100.00;96227.59;7403871;19;20920;-93
2024/01/13 11:00:04;;;;;;;8.60;7.17;;;;;;;-0.81;100.00;96265.41;7402696;19;20385;-93
2024/01/13 11:02:43;;;;;;;5.13;4.43;;;;;;;-1.33;100.00;96188.91;7403322;19;20385;-92
2024/01/13 11:05:15;;;;;;;7.30;6.10;;;;;;;-1.04;100.00;96227.59;7404594;19;20873;-85
2024/01/13 11:07:42;;;;;;;5.10;4.50;;;;;;;-1.16;100.00;96210.38;7400665;19;20408;-92
2024/01/13 11:10:17;;;;;;;22.27;12.37;;;;;;;-0.80;100.00;96251.53;7402478;19;20384;-92
2024/01/13 11:12:55;;;;;;;24.47;15.90;;;;;;;-1.29;100.00;96155.78;7403091;19;20424;-92
2024/01/13 11:15:31;;;;;;;59.00;35.43;;;;;;;-1.47;100.00;96102.72;7403717;19;20407;-93
2024/01/13 11:18:03;;;;;;;39.50;24.30;;;;;;;-1.88;100.00;96040.16;7404881;19;20909;-93
2024/01/13 11:21:07;;;;;;;75.87;44.70;;;;;;;-0.38;100.00;96280.44;7401053;19;20883;-92
2024/01/13 11:23:44;;;;;;;11.30;7.20;;;;;;;-1.66;100.00;96120.06;7401364;19;20476;-92
2024/01/13 11:26:18;;;;;;;9.60;6.73;;;;;;;-0.90;100.00;96223.75;7403258;19;20412;-93
2024/01/13 11:28:51;;;;;;;10.40;8.20;;;;;;;-0.68;100.00;96267.75;7403070;19;20865;-92
2024/01/13 11:31:29;;;;;;;12.47;8.70;;;;;;;-0.79;100.00;96233.25;7402825;19;20757;-92
2024/01/13 11:34:15;;;;;;;6.90;3.53;;;;;;;-0.42;100.00;96320.56;7402175;19;20380;-92